sensor_id;sensor_type;location;lat;lon;timestamp;P1;durP1;ratioP1;P2;durP2;ratioP2
73084;SDS011;62974;49.460;10.892;2023-06-24T00:02:20;4.50;;;2.38;;
73084;SDS011;62974;49.460;10.892;2023-06-24T00:04:50;3.40;;;2.35;;
73084;SDS011;62974;49.460;10.892;2023-06-24T00:07:18;4.63;;;2.65;;
73084;SDS011;62974;49.460;10.892;2023-06-24T00:09:48;4.82;;;2.40;;
73084;SDS011;62974;49.460;10.892;2023-06-24T00:12:15;3.90;;;2.53;;
73084;SDS011;62974;49.460;10.892;2023-06-24T00:14:45;4.32;;;2.55;;
73084;SDS011;62974;49.460;10.892;2023-06-24T00:19:43;3.78;;;2.67;;
73084;SDS011;62974;49.460;10.892;2023-06-24T00:22:11;4.85;;;3.20;;
73084;SDS011;62974;49.460;10.892;2023-06-24T00:24:41;5.00;;;2.78;;
73084;SDS011;62974;49.460;10.892;2023-06-24T00:27:09;5.63;;;2.58;;
73084;SDS011;62974;49.460;10.892;2023-06-24T00:29:37;4.50;;;2.22;;
73084;SDS011;62974;49.460;10.892;2023-06-24T00:32:05;3.50;;;2.25;;
73084;SDS011;62974;49.460;10.892;2023-06-24T00:34:35;4.82;;;2.75;;
73084;SDS011;62974;49.460;10.892;2023-06-24T00:37:02;3.78;;;2.22;;
73084;SDS011;62974;49.460;10.892;2023-06-24T00:39:30;4.28;;;2.50;;
73084;SDS011;62974;49.460;10.892;2023-06-24T00:41:58;4.38;;;2.28;;
73084;SDS011;62974;49.460;10.892;2023-06-24T00:44:25;5.88;;;2.92;;
73084;SDS011;62974;49.460;10.892;2023-06-24T00:46:53;4.38;;;2.35;;
73084;SDS011;62974;49.460;10.892;2023-06-24T00:49:21;5.35;;;2.65;;
73084;SDS011;62974;49.460;10.892;2023-06-24T00:51:50;4.47;;;2.60;;
73084;SDS011;62974;49.460;10.892;2023-06-24T00:54:18;3.35;;;2.42;;
73084;SDS011;62974;49.460;10.892;2023-06-24T00:56:45;5.10;;;2.83;;
73084;SDS011;62974;49.460;10.892;2023-06-24T00:59:15;3.53;;;2.40;;
73084;SDS011;62974;49.460;10.892;2023-06-24T01:01:43;4.88;;;2.70;;
73084;SDS011;62974;49.460;10.892;2023-06-24T01:04:12;4.38;;;2.42;;
73084;SDS011;62974;49.460;10.892;2023-06-24T01:06:42;4.70;;;2.65;;
73084;SDS011;62974;49.460;10.892;2023-06-24T01:09:12;5.53;;;2.60;;
73084;SDS011;62974;49.460;10.892;2023-06-24T01:11:39;5.15;;;2.60;;
73084;SDS011;62974;49.460;10.892;2023-06-24T01:14:07;4.18;;;2.67;;
73084;SDS011;62974;49.460;10.892;2023-06-24T01:16:37;4.18;;;2.65;;
73084;SDS011;62974;49.460;10.892;2023-06-24T01:19:13;4.68;;;2.90;;
73084;SDS011;62974;49.460;10.892;2023-06-24T01:22:08;3.92;;;2.55;;
73084;SDS011;62974;49.460;10.892;2023-06-24T01:24:59;4.00;;;2.60;;
73084;SDS011;62974;49.460;10.892;2023-06-24T01:30:40;5.25;;;2.53;;
73084;SDS011;62974;49.460;10.892;2023-06-24T01:33:24;5.32;;;2.70;;
73084;SDS011;62974;49.460;10.892;2023-06-24T01:35:59;3.67;;;2.40;;
73084;SDS011;62974;49.460;10.892;2023-06-24T01:38:30;4.00;;;2.53;;
73084;SDS011;62974;49.460;10.892;2023-06-24T01:41:03;5.20;;;2.67;;
73084;SDS011;62974;49.460;10.892;2023-06-24T01:43:33;4.60;;;2.67;;
73084;SDS011;62974;49.460;10.892;2023-06-24T01:46:03;4.63;;;2.40;;
73084;SDS011;62974;49.460;10.892;2023-06-24T01:48:35;4.68;;;2.58;;
73084;SDS011;62974;49.460;10.892;2023-06-24T01:51:15;4.20;;;2.53;;
73084;SDS011;62974;49.460;10.892;2023-06-24T01:53:48;3.83;;;2.50;;
73084;SDS011;62974;49.460;10.892;2023-06-24T01:56:18;5.07;;;2.83;;
73084;SDS011;62974;49.460;10.892;2023-06-24T01:58:50;4.07;;;2.45;;
73084;SDS011;62974;49.460;10.892;2023-06-24T02:01:20;3.92;;;2.22;;
73084;SDS011;62974;49.460;10.892;2023-06-24T02:03:53;4.55;;;2.28;;
73084;SDS011;62974;49.460;10.892;2023-06-24T02:06:22;5.10;;;2.70;;
73084;SDS011;62974;49.460;10.892;2023-06-24T02:08:53;4.40;;;2.30;;
73084;SDS011;62974;49.460;10.892;2023-06-24T02:11:24;3.83;;;2.20;;
73084;SDS011;62974;49.460;10.892;2023-06-24T02:13:55;3.92;;;2.00;;
73084;SDS011;62974;49.460;10.892;2023-06-24T02:16:25;4.07;;;2.38;;
73084;SDS011;62974;49.460;10.892;2023-06-24T02:18:56;3.35;;;2.33;;
73084;SDS011;62974;49.460;10.892;2023-06-24T02:21:24;5.50;;;2.22;;
73084;SDS011;62974;49.460;10.892;2023-06-24T02:23:54;5.28;;;2.60;;
73084;SDS011;62974;49.460;10.892;2023-06-24T02:26:23;4.10;;;2.47;;
73084;SDS011;62974;49.460;10.892;2023-06-24T02:28:51;4.68;;;2.65;;
73084;SDS011;62974;49.460;10.892;2023-06-24T02:31:20;4.18;;;2.53;;
73084;SDS011;62974;49.460;10.892;2023-06-24T02:33:48;7.68;;;2.30;;
73084;SDS011;62974;49.460;10.892;2023-06-24T02:36:17;4.80;;;2.60;;
73084;SDS011;62974;49.460;10.892;2023-06-24T02:38:44;5.03;;;2.42;;
73084;SDS011;62974;49.460;10.892;2023-06-24T02:41:12;3.80;;;2.03;;
73084;SDS011;62974;49.460;10.892;2023-06-24T02:43:39;4.60;;;2.75;;
73084;SDS011;62974;49.460;10.892;2023-06-24T02:46:07;4.50;;;2.50;;
73084;SDS011;62974;49.460;10.892;2023-06-24T02:48:36;4.68;;;2.88;;
73084;SDS011;62974;49.460;10.892;2023-06-24T02:51:06;4.07;;;2.53;;
73084;SDS011;62974;49.460;10.892;2023-06-24T02:53:37;3.97;;;2.38;;
73084;SDS011;62974;49.460;10.892;2023-06-24T02:56:05;4.53;;;2.75;;
73084;SDS011;62974;49.460;10.892;2023-06-24T02:58:35;5.05;;;2.97;;
73084;SDS011;62974;49.460;10.892;2023-06-24T03:01:06;4.22;;;2.65;;
73084;SDS011;62974;49.460;10.892;2023-06-24T03:03:34;3.90;;;2.60;;
73084;SDS011;62974;49.460;10.892;2023-06-24T03:06:02;4.40;;;2.50;;
73084;SDS011;62974;49.460;10.892;2023-06-24T03:08:31;3.60;;;2.35;;
73084;SDS011;62974;49.460;10.892;2023-06-24T03:11:00;3.10;;;2.13;;
73084;SDS011;62974;49.460;10.892;2023-06-24T03:13:28;4.47;;;2.40;;
73084;SDS011;62974;49.460;10.892;2023-06-24T03:18:23;3.67;;;2.42;;
73084;SDS011;62974;49.460;10.892;2023-06-24T03:20:51;3.60;;;2.33;;
73084;SDS011;62974;49.460;10.892;2023-06-24T03:23:19;4.43;;;2.70;;
73084;SDS011;62974;49.460;10.892;2023-06-24T03:25:46;5.18;;;2.67;;
73084;SDS011;62974;49.460;10.892;2023-06-24T03:28:15;3.63;;;2.50;;
73084;SDS011;62974;49.460;10.892;2023-06-24T03:30:43;4.07;;;2.65;;
73084;SDS011;62974;49.460;10.892;2023-06-24T03:33:11;6.80;;;2.83;;
73084;SDS011;62974;49.460;10.892;2023-06-24T03:35:43;5.03;;;2.83;;
73084;SDS011;62974;49.460;10.892;2023-06-24T03:38:10;5.63;;;2.80;;
73084;SDS011;62974;49.460;10.892;2023-06-24T03:40:38;4.45;;;2.90;;
73084;SDS011;62974;49.460;10.892;2023-06-24T03:43:05;6.13;;;2.70;;
73084;SDS011;62974;49.460;10.892;2023-06-24T03:45:34;4.55;;;3.00;;
73084;SDS011;62974;49.460;10.892;2023-06-24T03:48:02;4.28;;;2.60;;
73084;SDS011;62974;49.460;10.892;2023-06-24T03:50:30;6.22;;;3.15;;
73084;SDS011;62974;49.460;10.892;2023-06-24T03:52:58;4.50;;;2.90;;
73084;SDS011;62974;49.460;10.892;2023-06-24T03:55:25;4.03;;;2.78;;
73084;SDS011;62974;49.460;10.892;2023-06-24T03:57:53;6.15;;;2.75;;
73084;SDS011;62974;49.460;10.892;2023-06-24T04:00:21;5.25;;;2.80;;
73084;SDS011;62974;49.460;10.892;2023-06-24T04:02:50;5.10;;;3.00;;
73084;SDS011;62974;49.460;10.892;2023-06-24T04:05:19;3.85;;;2.50;;
73084;SDS011;62974;49.460;10.892;2023-06-24T04:07:47;6.25;;;2.92;;
73084;SDS011;62974;49.460;10.892;2023-06-24T04:10:18;5.20;;;2.70;;
73084;SDS011;62974;49.460;10.892;2023-06-24T04:12:46;5.40;;;3.25;;
73084;SDS011;62974;49.460;10.892;2023-06-24T04:15:13;4.38;;;2.45;;
73084;SDS011;62974;49.460;10.892;2023-06-24T04:17:41;3.17;;;2.60;;
73084;SDS011;62974;49.460;10.892;2023-06-24T04:20:10;4.45;;;2.50;;
73084;SDS011;62974;49.460;10.892;2023-06-24T04:22:40;5.05;;;2.65;;
73084;SDS011;62974;49.460;10.892;2023-06-24T04:25:08;4.97;;;2.72;;
73084;SDS011;62974;49.460;10.892;2023-06-24T04:27:36;6.88;;;2.58;;
73084;SDS011;62974;49.460;10.892;2023-06-24T04:30:04;4.93;;;2.80;;
73084;SDS011;62974;49.460;10.892;2023-06-24T04:32:32;4.22;;;3.00;;
73084;SDS011;62974;49.460;10.892;2023-06-24T04:35:00;5.70;;;2.70;;
73084;SDS011;62974;49.460;10.892;2023-06-24T04:37:29;5.07;;;3.35;;
73084;SDS011;62974;49.460;10.892;2023-06-24T04:39:57;4.38;;;2.72;;
73084;SDS011;62974;49.460;10.892;2023-06-24T04:42:25;5.18;;;2.92;;
73084;SDS011;62974;49.460;10.892;2023-06-24T04:44:52;5.50;;;3.53;;
73084;SDS011;62974;49.460;10.892;2023-06-24T04:47:20;5.53;;;3.22;;
73084;SDS011;62974;49.460;10.892;2023-06-24T04:49:47;6.82;;;3.35;;
73084;SDS011;62974;49.460;10.892;2023-06-24T04:52:15;4.93;;;3.15;;
73084;SDS011;62974;49.460;10.892;2023-06-24T04:54:44;5.55;;;3.30;;
73084;SDS011;62974;49.460;10.892;2023-06-24T04:57:22;5.18;;;3.28;;
73084;SDS011;62974;49.460;10.892;2023-06-24T04:59:51;4.38;;;3.22;;
73084;SDS011;62974;49.460;10.892;2023-06-24T05:02:18;5.65;;;3.88;;
73084;SDS011;62974;49.460;10.892;2023-06-24T05:04:46;5.38;;;3.20;;
73084;SDS011;62974;49.460;10.892;2023-06-24T05:07:14;6.18;;;3.45;;
73084;SDS011;62974;49.460;10.892;2023-06-24T05:09:41;6.10;;;3.65;;
73084;SDS011;62974;49.460;10.892;2023-06-24T05:12:12;5.78;;;3.50;;
73084;SDS011;62974;49.460;10.892;2023-06-24T05:14:40;6.20;;;4.07;;
73084;SDS011;62974;49.460;10.892;2023-06-24T05:17:08;5.28;;;3.17;;
73084;SDS011;62974;49.460;10.892;2023-06-24T05:19:35;6.60;;;3.50;;
73084;SDS011;62974;49.460;10.892;2023-06-24T05:22:03;8.35;;;3.90;;
73084;SDS011;62974;49.460;10.892;2023-06-24T05:24:31;6.20;;;3.85;;
73084;SDS011;62974;49.460;10.892;2023-06-24T05:27:03;5.35;;;3.33;;
73084;SDS011;62974;49.460;10.892;2023-06-24T05:29:31;5.25;;;3.45;;
73084;SDS011;62974;49.460;10.892;2023-06-24T05:31:59;7.68;;;3.63;;
73084;SDS011;62974;49.460;10.892;2023-06-24T05:34:29;7.05;;;3.75;;
73084;SDS011;62974;49.460;10.892;2023-06-24T05:36:57;7.18;;;3.78;;
73084;SDS011;62974;49.460;10.892;2023-06-24T05:39:25;6.72;;;3.50;;
73084;SDS011;62974;49.460;10.892;2023-06-24T05:41:52;4.25;;;3.13;;
73084;SDS011;62974;49.460;10.892;2023-06-24T05:44:21;6.78;;;3.45;;
73084;SDS011;62974;49.460;10.892;2023-06-24T05:46:49;7.32;;;3.70;;
73084;SDS011;62974;49.460;10.892;2023-06-24T05:49:17;6.25;;;3.60;;
73084;SDS011;62974;49.460;10.892;2023-06-24T05:51:45;7.40;;;4.03;;
73084;SDS011;62974;49.460;10.892;2023-06-24T05:54:12;7.95;;;3.97;;
73084;SDS011;62974;49.460;10.892;2023-06-24T05:56:40;6.90;;;4.03;;
73084;SDS011;62974;49.460;10.892;2023-06-24T05:59:07;5.10;;;3.20;;
73084;SDS011;62974;49.460;10.892;2023-06-24T06:01:36;5.63;;;3.25;;
73084;SDS011;62974;49.460;10.892;2023-06-24T06:04:04;7.35;;;3.60;;
73084;SDS011;62974;49.460;10.892;2023-06-24T06:06:31;5.50;;;3.15;;
73084;SDS011;62974;49.460;10.892;2023-06-24T06:08:59;5.63;;;3.03;;
73084;SDS011;62974;49.460;10.892;2023-06-24T06:11:27;7.47;;;3.50;;
73084;SDS011;62974;49.460;10.892;2023-06-24T06:13:54;6.80;;;4.22;;
73084;SDS011;62974;49.460;10.892;2023-06-24T06:16:22;6.95;;;4.25;;
73084;SDS011;62974;49.460;10.892;2023-06-24T06:18:51;6.78;;;3.63;;
73084;SDS011;62974;49.460;10.892;2023-06-24T06:21:18;6.22;;;3.53;;
73084;SDS011;62974;49.460;10.892;2023-06-24T06:23:46;5.55;;;3.33;;
73084;SDS011;62974;49.460;10.892;2023-06-24T06:26:13;7.28;;;3.53;;
73084;SDS011;62974;49.460;10.892;2023-06-24T06:28:41;5.57;;;3.42;;
73084;SDS011;62974;49.460;10.892;2023-06-24T06:31:08;5.68;;;3.05;;
73084;SDS011;62974;49.460;10.892;2023-06-24T06:33:36;5.03;;;2.58;;
73084;SDS011;62974;49.460;10.892;2023-06-24T06:36:05;5.30;;;3.17;;
73084;SDS011;62974;49.460;10.892;2023-06-24T06:38:33;7.43;;;3.30;;
73084;SDS011;62974;49.460;10.892;2023-06-24T06:41:01;4.20;;;2.70;;
73084;SDS011;62974;49.460;10.892;2023-06-24T06:43:28;4.15;;;2.30;;
73084;SDS011;62974;49.460;10.892;2023-06-24T06:45:56;4.47;;;2.60;;
73084;SDS011;62974;49.460;10.892;2023-06-24T06:48:23;4.72;;;2.40;;
73084;SDS011;62974;49.460;10.892;2023-06-24T06:50:51;6.25;;;3.08;;
73084;SDS011;62974;49.460;10.892;2023-06-24T06:53:20;4.15;;;2.60;;
73084;SDS011;62974;49.460;10.892;2023-06-24T06:55:48;4.50;;;2.30;;
73084;SDS011;62974;49.460;10.892;2023-06-24T06:58:15;7.38;;;3.75;;
73084;SDS011;62974;49.460;10.892;2023-06-24T07:00:43;4.50;;;2.83;;
73084;SDS011;62974;49.460;10.892;2023-06-24T07:03:10;3.97;;;2.30;;
73084;SDS011;62974;49.460;10.892;2023-06-24T07:05:38;4.85;;;2.35;;
73084;SDS011;62974;49.460;10.892;2023-06-24T07:10:35;5.15;;;2.42;;
73084;SDS011;62974;49.460;10.892;2023-06-24T07:13:02;4.63;;;2.70;;
73084;SDS011;62974;49.460;10.892;2023-06-24T07:15:30;4.35;;;2.65;;
73084;SDS011;62974;49.460;10.892;2023-06-24T07:17:58;4.03;;;2.65;;
73084;SDS011;62974;49.460;10.892;2023-06-24T07:20:25;4.45;;;2.70;;
73084;SDS011;62974;49.460;10.892;2023-06-24T07:22:53;5.57;;;2.85;;
73084;SDS011;62974;49.460;10.892;2023-06-24T07:25:20;4.60;;;2.90;;
73084;SDS011;62974;49.460;10.892;2023-06-24T07:27:49;4.85;;;3.00;;
73084;SDS011;62974;49.460;10.892;2023-06-24T07:30:17;5.55;;;3.10;;
73084;SDS011;62974;49.460;10.892;2023-06-24T07:32:44;5.10;;;3.05;;
73084;SDS011;62974;49.460;10.892;2023-06-24T07:35:12;4.65;;;3.17;;
73084;SDS011;62974;49.460;10.892;2023-06-24T07:37:41;6.28;;;3.65;;
73084;SDS011;62974;49.460;10.892;2023-06-24T07:40:09;6.60;;;3.17;;
73084;SDS011;62974;49.460;10.892;2023-06-24T07:42:37;5.72;;;2.97;;
73084;SDS011;62974;49.460;10.892;2023-06-24T07:45:06;4.40;;;2.97;;
73084;SDS011;62974;49.460;10.892;2023-06-24T07:47:34;7.82;;;3.10;;
73084;SDS011;62974;49.460;10.892;2023-06-24T07:50:02;4.15;;;2.50;;
73084;SDS011;62974;49.460;10.892;2023-06-24T07:54:57;6.10;;;2.83;;
73084;SDS011;62974;49.460;10.892;2023-06-24T07:57:26;5.63;;;2.65;;
73084;SDS011;62974;49.460;10.892;2023-06-24T07:59:53;5.60;;;3.22;;
73084;SDS011;62974;49.460;10.892;2023-06-24T08:02:23;4.75;;;2.70;;
73084;SDS011;62974;49.460;10.892;2023-06-24T08:04:51;5.53;;;3.17;;
73084;SDS011;62974;49.460;10.892;2023-06-24T08:09:46;4.30;;;2.58;;
73084;SDS011;62974;49.460;10.892;2023-06-24T08:12:14;6.85;;;2.95;;
73084;SDS011;62974;49.460;10.892;2023-06-24T08:14:41;7.93;;;4.20;;
73084;SDS011;62974;49.460;10.892;2023-06-24T08:17:09;5.97;;;3.45;;
73084;SDS011;62974;49.460;10.892;2023-06-24T08:19:38;5.88;;;3.40;;
73084;SDS011;62974;49.460;10.892;2023-06-24T08:22:05;6.15;;;3.67;;
73084;SDS011;62974;49.460;10.892;2023-06-24T08:24:33;6.13;;;3.65;;
73084;SDS011;62974;49.460;10.892;2023-06-24T08:27:00;5.88;;;3.00;;
73084;SDS011;62974;49.460;10.892;2023-06-24T08:29:28;6.45;;;3.35;;
73084;SDS011;62974;49.460;10.892;2023-06-24T08:31:55;6.13;;;3.55;;
73084;SDS011;62974;49.460;10.892;2023-06-24T08:34:23;4.50;;;2.80;;
73084;SDS011;62974;49.460;10.892;2023-06-24T08:36:53;6.30;;;3.67;;
73084;SDS011;62974;49.460;10.892;2023-06-24T08:39:21;5.43;;;3.38;;
73084;SDS011;62974;49.460;10.892;2023-06-24T08:41:49;5.30;;;3.15;;
73084;SDS011;62974;49.460;10.892;2023-06-24T08:44:16;5.30;;;3.08;;
73084;SDS011;62974;49.460;10.892;2023-06-24T08:46:44;5.45;;;3.22;;
73084;SDS011;62974;49.460;10.892;2023-06-24T08:49:14;5.65;;;3.03;;
73084;SDS011;62974;49.460;10.892;2023-06-24T08:51:56;4.30;;;2.90;;
73084;SDS011;62974;49.460;10.892;2023-06-24T08:54:28;4.47;;;2.80;;
73084;SDS011;62974;49.460;10.892;2023-06-24T08:59:23;3.83;;;2.60;;
73084;SDS011;62974;49.460;10.892;2023-06-24T09:01:51;3.92;;;2.40;;
73084;SDS011;62974;49.460;10.892;2023-06-24T09:04:18;3.67;;;2.63;;
73084;SDS011;62974;49.460;10.892;2023-06-24T09:06:46;4.32;;;2.80;;
73084;SDS011;62974;49.460;10.892;2023-06-24T09:09:18;4.03;;;2.67;;
73084;SDS011;62974;49.460;10.892;2023-06-24T09:11:53;5.75;;;3.00;;
73084;SDS011;62974;49.460;10.892;2023-06-24T09:14:21;3.60;;;2.42;;
73084;SDS011;62974;49.460;10.892;2023-06-24T09:16:53;5.40;;;2.60;;
73084;SDS011;62974;49.460;10.892;2023-06-24T09:19:21;11.60;;;3.45;;
73084;SDS011;62974;49.460;10.892;2023-06-24T09:24:19;3.88;;;2.60;;
73084;SDS011;62974;49.460;10.892;2023-06-24T09:26:46;5.35;;;3.03;;
73084;SDS011;62974;49.460;10.892;2023-06-24T09:29:14;5.45;;;2.72;;
73084;SDS011;62974;49.460;10.892;2023-06-24T09:31:48;4.93;;;2.45;;
73084;SDS011;62974;49.460;10.892;2023-06-24T09:34:19;3.33;;;1.67;;
73084;SDS011;62974;49.460;10.892;2023-06-24T09:36:50;3.90;;;1.80;;
73084;SDS011;62974;49.460;10.892;2023-06-24T09:39:20;3.30;;;1.88;;
73084;SDS011;62974;49.460;10.892;2023-06-24T09:41:55;3.40;;;1.83;;
73084;SDS011;62974;49.460;10.892;2023-06-24T09:44:23;24.00;;;3.50;;
73084;SDS011;62974;49.460;10.892;2023-06-24T09:46:51;13.85;;;4.30;;
73084;SDS011;62974;49.460;10.892;2023-06-24T09:49:19;4.38;;;2.28;;
73084;SDS011;62974;49.460;10.892;2023-06-24T09:51:48;3.55;;;2.00;;
73084;SDS011;62974;49.460;10.892;2023-06-24T09:54:16;3.95;;;2.63;;
73084;SDS011;62974;49.460;10.892;2023-06-24T09:56:47;3.92;;;2.15;;
73084;SDS011;62974;49.460;10.892;2023-06-24T09:59:17;22.42;;;5.10;;
73084;SDS011;62974;49.460;10.892;2023-06-24T10:01:46;5.50;;;2.50;;
73084;SDS011;62974;49.460;10.892;2023-06-24T10:04:15;3.42;;;2.00;;
73084;SDS011;62974;49.460;10.892;2023-06-24T10:06:44;3.10;;;2.00;;
73084;SDS011;62974;49.460;10.892;2023-06-24T10:09:12;3.75;;;1.70;;
73084;SDS011;62974;49.460;10.892;2023-06-24T10:11:43;3.85;;;2.10;;
73084;SDS011;62974;49.460;10.892;2023-06-24T10:14:12;3.88;;;1.90;;
73084;SDS011;62974;49.460;10.892;2023-06-24T10:16:41;6.93;;;2.15;;
73084;SDS011;62974;49.460;10.892;2023-06-24T10:19:09;3.63;;;2.22;;
73084;SDS011;62974;49.460;10.892;2023-06-24T10:21:43;4.18;;;2.30;;
73084;SDS011;62974;49.460;10.892;2023-06-24T10:24:12;3.83;;;2.28;;
73084;SDS011;62974;49.460;10.892;2023-06-24T10:26:40;4.35;;;2.58;;
73084;SDS011;62974;49.460;10.892;2023-06-24T10:29:09;4.10;;;2.42;;
73084;SDS011;62974;49.460;10.892;2023-06-24T10:31:51;4.40;;;2.08;;
73084;SDS011;62974;49.460;10.892;2023-06-24T10:34:24;5.20;;;2.72;;
73084;SDS011;62974;49.460;10.892;2023-06-24T10:36:55;4.75;;;2.35;;
73084;SDS011;62974;49.460;10.892;2023-06-24T10:39:35;4.20;;;2.20;;
73084;SDS011;62974;49.460;10.892;2023-06-24T10:44:56;3.67;;;2.40;;
73084;SDS011;62974;49.460;10.892;2023-06-24T10:47:27;4.20;;;2.10;;
73084;SDS011;62974;49.460;10.892;2023-06-24T10:49:55;3.17;;;2.10;;
73084;SDS011;62974;49.460;10.892;2023-06-24T10:52:23;3.95;;;2.22;;
73084;SDS011;62974;49.460;10.892;2023-06-24T10:54:51;4.20;;;2.45;;
73084;SDS011;62974;49.460;10.892;2023-06-24T10:57:20;4.97;;;2.65;;
73084;SDS011;62974;49.460;10.892;2023-06-24T10:59:50;6.45;;;2.95;;
73084;SDS011;62974;49.460;10.892;2023-06-24T11:02:20;4.07;;;2.60;;
73084;SDS011;62974;49.460;10.892;2023-06-24T11:04:50;4.32;;;2.20;;
73084;SDS011;62974;49.460;10.892;2023-06-24T11:07:20;4.20;;;2.20;;
73084;SDS011;62974;49.460;10.892;2023-06-24T11:09:48;4.95;;;2.40;;
73084;SDS011;62974;49.460;10.892;2023-06-24T11:12:16;5.85;;;1.95;;
73084;SDS011;62974;49.460;10.892;2023-06-24T11:17:12;4.03;;;2.30;;
73084;SDS011;62974;49.460;10.892;2023-06-24T11:19:40;3.10;;;2.17;;
73084;SDS011;62974;49.460;10.892;2023-06-24T11:22:11;4.40;;;2.00;;
73084;SDS011;62974;49.460;10.892;2023-06-24T11:24:38;3.33;;;1.90;;
73084;SDS011;62974;49.460;10.892;2023-06-24T11:27:07;4.85;;;2.40;;
73084;SDS011;62974;49.460;10.892;2023-06-24T11:29:35;3.45;;;1.98;;
73084;SDS011;62974;49.460;10.892;2023-06-24T11:32:03;3.65;;;2.08;;
73084;SDS011;62974;49.460;10.892;2023-06-24T11:34:34;3.63;;;2.30;;
73084;SDS011;62974;49.460;10.892;2023-06-24T11:37:10;3.65;;;1.90;;
73084;SDS011;62974;49.460;10.892;2023-06-24T11:39:39;5.35;;;2.42;;
73084;SDS011;62974;49.460;10.892;2023-06-24T11:42:07;3.83;;;2.22;;
73084;SDS011;62974;49.460;10.892;2023-06-24T11:44:35;4.60;;;2.47;;
73084;SDS011;62974;49.460;10.892;2023-06-24T11:47:08;4.35;;;2.50;;
73084;SDS011;62974;49.460;10.892;2023-06-24T11:49:47;4.80;;;2.78;;
73084;SDS011;62974;49.460;10.892;2023-06-24T11:52:17;4.30;;;2.28;;
73084;SDS011;62974;49.460;10.892;2023-06-24T11:54:44;3.58;;;2.22;;
73084;SDS011;62974;49.460;10.892;2023-06-24T11:57:13;3.83;;;1.98;;
73084;SDS011;62974;49.460;10.892;2023-06-24T11:59:41;7.93;;;4.25;;
73084;SDS011;62974;49.460;10.892;2023-06-24T12:02:12;4.32;;;2.67;;
73084;SDS011;62974;49.460;10.892;2023-06-24T12:04:43;4.35;;;2.70;;
73084;SDS011;62974;49.460;10.892;2023-06-24T12:07:11;4.55;;;2.72;;
73084;SDS011;62974;49.460;10.892;2023-06-24T12:09:40;3.90;;;1.90;;
73084;SDS011;62974;49.460;10.892;2023-06-24T12:12:08;2.95;;;2.38;;
73084;SDS011;62974;49.460;10.892;2023-06-24T12:14:35;3.35;;;2.28;;
73084;SDS011;62974;49.460;10.892;2023-06-24T12:17:03;5.00;;;2.22;;
73084;SDS011;62974;49.460;10.892;2023-06-24T12:19:31;3.85;;;2.22;;
73084;SDS011;62974;49.460;10.892;2023-06-24T12:21:58;4.07;;;2.22;;
73084;SDS011;62974;49.460;10.892;2023-06-24T12:24:26;5.32;;;2.50;;
73084;SDS011;62974;49.460;10.892;2023-06-24T12:26:54;4.20;;;2.20;;
73084;SDS011;62974;49.460;10.892;2023-06-24T12:29:22;3.60;;;2.25;;
73084;SDS011;62974;49.460;10.892;2023-06-24T12:31:50;4.35;;;2.40;;
73084;SDS011;62974;49.460;10.892;2023-06-24T12:34:17;3.78;;;2.08;;
73084;SDS011;62974;49.460;10.892;2023-06-24T12:36:47;3.15;;;2.38;;
73084;SDS011;62974;49.460;10.892;2023-06-24T12:39:14;3.28;;;2.10;;
73084;SDS011;62974;49.460;10.892;2023-06-24T12:41:45;5.35;;;2.20;;
73084;SDS011;62974;49.460;10.892;2023-06-24T12:44:14;3.47;;;2.17;;
73084;SDS011;62974;49.460;10.892;2023-06-24T12:46:42;2.75;;;2.00;;
73084;SDS011;62974;49.460;10.892;2023-06-24T12:49:09;4.22;;;2.03;;
73084;SDS011;62974;49.460;10.892;2023-06-24T12:51:37;4.22;;;2.15;;
73084;SDS011;62974;49.460;10.892;2023-06-24T12:54:04;2.78;;;1.98;;
73084;SDS011;62974;49.460;10.892;2023-06-24T12:56:32;3.10;;;2.13;;
73084;SDS011;62974;49.460;10.892;2023-06-24T12:58:59;3.85;;;2.45;;
73084;SDS011;62974;49.460;10.892;2023-06-24T13:01:29;4.35;;;2.60;;
73084;SDS011;62974;49.460;10.892;2023-06-24T13:03:57;3.72;;;1.98;;
73084;SDS011;62974;49.460;10.892;2023-06-24T13:08:52;3.08;;;2.10;;
73084;SDS011;62974;49.460;10.892;2023-06-24T13:11:20;3.63;;;2.10;;
73084;SDS011;62974;49.460;10.892;2023-06-24T13:13:47;2.85;;;1.73;;
73084;SDS011;62974;49.460;10.892;2023-06-24T13:16:15;4.13;;;2.10;;
73084;SDS011;62974;49.460;10.892;2023-06-24T13:18:44;2.70;;;1.80;;
73084;SDS011;62974;49.460;10.892;2023-06-24T13:21:11;3.92;;;2.00;;
73084;SDS011;62974;49.460;10.892;2023-06-24T13:23:41;4.22;;;1.98;;
73084;SDS011;62974;49.460;10.892;2023-06-24T13:26:09;3.88;;;2.17;;
73084;SDS011;62974;49.460;10.892;2023-06-24T13:28:38;2.92;;;1.77;;
73084;SDS011;62974;49.460;10.892;2023-06-24T13:31:05;4.38;;;1.83;;
73084;SDS011;62974;49.460;10.892;2023-06-24T13:33:33;2.78;;;1.58;;
73084;SDS011;62974;49.460;10.892;2023-06-24T13:36:02;2.83;;;1.85;;
73084;SDS011;62974;49.460;10.892;2023-06-24T13:38:31;2.80;;;2.10;;
73084;SDS011;62974;49.460;10.892;2023-06-24T13:40:59;2.85;;;1.83;;
73084;SDS011;62974;49.460;10.892;2023-06-24T13:43:27;3.25;;;2.00;;
73084;SDS011;62974;49.460;10.892;2023-06-24T13:45:54;3.28;;;1.98;;
73084;SDS011;62974;49.460;10.892;2023-06-24T13:48:23;3.30;;;2.10;;
73084;SDS011;62974;49.460;10.892;2023-06-24T13:50:50;2.72;;;1.65;;
73084;SDS011;62974;49.460;10.892;2023-06-24T13:53:19;3.53;;;2.08;;
73084;SDS011;62974;49.460;10.892;2023-06-24T13:55:47;2.70;;;1.75;;
73084;SDS011;62974;49.460;10.892;2023-06-24T13:58:14;2.72;;;1.85;;
73084;SDS011;62974;49.460;10.892;2023-06-24T14:00:42;4.60;;;2.00;;
73084;SDS011;62974;49.460;10.892;2023-06-24T14:03:09;3.10;;;2.00;;
73084;SDS011;62974;49.460;10.892;2023-06-24T14:05:37;2.72;;;1.80;;
73084;SDS011;62974;49.460;10.892;2023-06-24T14:08:04;3.60;;;1.70;;
73084;SDS011;62974;49.460;10.892;2023-06-24T14:10:33;3.33;;;1.80;;
73084;SDS011;62974;49.460;10.892;2023-06-24T14:13:02;3.30;;;2.00;;
73084;SDS011;62974;49.460;10.892;2023-06-24T14:15:29;3.20;;;1.80;;
73084;SDS011;62974;49.460;10.892;2023-06-24T14:17:57;2.80;;;1.58;;
73084;SDS011;62974;49.460;10.892;2023-06-24T14:22:52;2.90;;;1.92;;
73084;SDS011;62974;49.460;10.892;2023-06-24T14:25:19;4.03;;;1.90;;
73084;SDS011;62974;49.460;10.892;2023-06-24T14:27:48;3.65;;;2.03;;
73084;SDS011;62974;49.460;10.892;2023-06-24T14:30:16;3.58;;;1.85;;
73084;SDS011;62974;49.460;10.892;2023-06-24T14:32:43;3.97;;;2.08;;
73084;SDS011;62974;49.460;10.892;2023-06-24T14:35:11;4.53;;;2.35;;
73084;SDS011;62974;49.460;10.892;2023-06-24T14:37:38;3.15;;;1.98;;
73084;SDS011;62974;49.460;10.892;2023-06-24T14:40:08;3.30;;;2.10;;
73084;SDS011;62974;49.460;10.892;2023-06-24T14:42:36;4.00;;;2.10;;
73084;SDS011;62974;49.460;10.892;2023-06-24T14:45:05;3.60;;;2.05;;
73084;SDS011;62974;49.460;10.892;2023-06-24T14:47:33;3.33;;;2.40;;
73084;SDS011;62974;49.460;10.892;2023-06-24T14:50:01;3.53;;;2.08;;
73084;SDS011;62974;49.460;10.892;2023-06-24T14:52:29;4.70;;;2.30;;
73084;SDS011;62974;49.460;10.892;2023-06-24T14:54:56;4.30;;;2.00;;
73084;SDS011;62974;49.460;10.892;2023-06-24T14:57:24;3.15;;;2.42;;
73084;SDS011;62974;49.460;10.892;2023-06-24T15:02:20;4.00;;;2.15;;
73084;SDS011;62974;49.460;10.892;2023-06-24T15:04:48;3.40;;;2.03;;
73084;SDS011;62974;49.460;10.892;2023-06-24T15:07:15;4.20;;;2.15;;
73084;SDS011;62974;49.460;10.892;2023-06-24T15:09:43;3.53;;;2.03;;
73084;SDS011;62974;49.460;10.892;2023-06-24T15:12:11;3.33;;;2.03;;
73084;SDS011;62974;49.460;10.892;2023-06-24T15:14:38;5.07;;;2.47;;
73084;SDS011;62974;49.460;10.892;2023-06-24T15:17:06;4.15;;;2.10;;